Share

Ackley, IA

Jensen Farm (KIAIOWAF2) Elev 1129 ft | 42.50 °N, 93.20 °W | Change Station

Current weather conditions updated 43 seconds ago

Overcast
Overcast
62.7 °F
Feels Like 62.7 °F
N
0.0
Wind Variable Wind from West
Gusts 2.0 mph
Sunrise 6:23 AM
Sunset 7:59 PM
Moon Waning Gibbous

Tomorrow is forecast to be Much Cooler than today. Morning rain and a thundershower.

Pressure 29.97 in
Visibility 1.2 miles
Clouds Mostly Cloudy 400 ft
Overcast 3100 ft
Dew Point 57 °F
Humidity 83%
Rainfall 0.36 in
Snow Depth Not available.
UV 0 out of 16
Pollen 8.50 out of 12
Air Quality Not available.
Flu Activity Sporadic
METAR KCAV 210315Z AUTO 21019G25KT 1 1/4SM RA BKN004 OVC031 18/14 A2997 RMK AO2

More Conditions Fewer Conditions

Pressure 29.97 in
Visibility 1.2 miles
Clouds Mostly Cloudy 400 ft
Overcast 3100 ft
Dew Point 57 °F
Humidity 83%
Rainfall 0.36 in
Snow Depth Not available.
UV 0 out of 16
Pollen 8.50 out of 12
Air Quality Not available.
Flu Activity Sporadic
METAR KCAV 210315Z AUTO 21019G25KT 1 1/4SM RA BKN004 OVC031 18/14 A2997 RMK AO2

More Conditions Fewer Conditions

10-Day Weather Forecast

Almanac

Astronomy

Apr. 20, 2014 Rise Set
Actual Time 6:23 AM CDT 7:59 PM CDT
Civil Twilight 5:53 AM CDT 8:29 PM CDT
Nautical Twilight 5:17 AM CDT 9:05 PM CDT
Astronomical Twilight 4:39 AM CDT 9:44 PM CDT
Moon 12:42 AM CDT (4/20) 10:41 AM CDT (4/20)
Length of Visible Light 14h 36m
Length of Day
13h 36m
Tomorrow will be 2m 41s longer.
Waning Gibbous, 63% of the Moon is Illuminated
Today
Waning Gibbous
Apr 22
Last Quarter
Apr 29
New
May 6
First Quarter
May 14
Full

Today's Extremes

State Highs State Lows

Community

  • Sun Pillar and Geese
    Sun Pillar and Geese
  • Showers on the Way
    Showers on the Way
  • Easter Morning Fog
    Easter Morning Fog
  • Easter Dance
    Easter Dance
  • spring skiing mount Baker WA
    spring skiing mount Baker WA

WunderPhotos

Upload Photos

1,703,546 photos uploaded!

WunderBlogs® & News

Nearby

Snow Depth

Station Depth Elevation
No new snow has been reported.

Coastal Water Temperatures

Place Temperature
No Stations Reporting

Earthquake Activity

City Distance Mag. Time & Date
No recent earthquake activity has been reported nearby.
Minimum magnitude displayed is 2.5.

Nearby Weather Stations

Station Location Temp. Heat Index Dew Point Humidity Wind Precip. Elev Updated Type
Jensen Farm, Iowa Falls, IA 62.7 °F - 57 °F 83% West  at  0.0 mph 0.00 in / hr 1129 ft 10:40 PM CDT Rapid Fire
MesoWest ARGON , Bradford, IA 72 °F - - - North  at  - 0.00 in / hr 1198 ft 7:15 PM CDT MADIS
Meyer Agri-Air, Wellsburg, IA 70.2 °F 77 °F 53 °F 55% South  at  4.0 mph 0.00 in / hr 1093 ft 10:30 PM CDT Normal
Beeds Addition, Hampton, IA 61.3 °F - 61 °F 100% SE  at  6.0 mph 0.09 in / hr 1145 ft 10:40 PM CDT Rapid Fire

Show More Stations Show Fewer Stations

What do you think?

We're not finished. Please let us know what you like, what you don't like, and what you are still missing.